Time;durP1;ratioP1;P1;durP2;ratioP2;P2;SDS_P1;SDS_P2;PMS_P1;PMS_P2;Temp;Humidity;BMP_temperature;BMP_pressure;BME280_temperature;BME280_humidity;BME280_pressure;Samples;Min_cycle;Max_cycle;Signal;HPM_P1;HPM_P2
2023/12/11 00:01:04;;;;;;;25.17;14.55;;;;;;;-10.65;100.00;101947.94;5052655;28;20496;-67
2023/12/11 00:03:29;;;;;;;25.48;13.43;;;;;;;-10.61;100.00;101948.78;5051356;28;20525;-65
2023/12/11 00:05:55;;;;;;;23.60;14.70;;;;;;;-10.61;100.00;101953.06;5053139;28;20053;-64
2023/12/11 00:08:21;;;;;;;22.37;12.73;;;;;;;-10.59;100.00;101952.22;5052653;28;20504;-65
2023/12/11 00:10:46;;;;;;;25.83;13.47;;;;;;;-10.58;100.00;101951.34;5052074;28;20102;-64
2023/12/11 00:13:12;;;;;;;22.33;13.40;;;;;;;-10.64;100.00;101925.63;5051296;28;20183;-65
2023/12/11 00:15:41;;;;;;;21.57;12.87;;;;;;;-10.55;100.00;101946.19;5052401;28;20534;-64
2023/12/11 00:18:07;;;;;;;22.65;13.13;;;;;;;-10.47;100.00;101953.91;5052639;28;20041;-66
2023/12/11 00:20:33;;;;;;;27.53;14.67;;;;;;;-10.55;100.00;101946.19;5052475;28;20040;-66
2023/12/11 00:22:59;;;;;;;22.50;14.73;;;;;;;-10.64;100.00;101936.78;5052434;28;20132;-63
2023/12/11 00:25:27;;;;;;;24.50;12.77;;;;;;;-10.67;100.00;101930.78;5052343;28;20130;-65
2023/12/11 00:27:53;;;;;;;32.50;14.85;;;;;;;-10.52;100.00;101958.22;5052061;28;20162;-66
2023/12/11 00:30:19;;;;;;;25.37;13.87;;;;;;;-10.57;100.00;101945.34;5051912;28;20128;-66
2023/12/11 00:32:44;;;;;;;23.67;14.07;;;;;;;-10.67;100.00;101936.78;5052208;28;20512;-66
2023/12/11 00:35:10;;;;;;;25.30;14.10;;;;;;;-10.81;100.00;101904.16;5051922;28;20044;-65
2023/12/11 00:37:35;;;;;;;25.13;15.70;;;;;;;-10.57;100.00;101942.78;5052048;28;20039;-66
2023/12/11 00:40:01;;;;;;;22.23;14.13;;;;;;;-10.72;100.00;101923.03;5034360;28;20496;-67
2023/12/11 00:42:29;;;;;;;28.20;12.90;;;;;;;-10.59;100.00;101943.63;5053213;28;20041;-63
2023/12/11 00:44:54;;;;;;;22.03;12.67;;;;;;;-10.61;100.00;101941.06;5051829;28;20052;-64
2023/12/11 00:47:20;;;;;;;24.37;14.63;;;;;;;-10.55;100.00;101943.63;5052003;28;20036;-67
2023/12/11 00:49:47;;;;;;;24.57;13.43;;;;;;;-10.56;100.00;101939.34;5052829;28;20040;-66
2023/12/11 00:52:12;;;;;;;24.00;14.20;;;;;;;-10.70;100.00;101917.88;5050909;28;20036;-65
2023/12/11 00:54:38;;;;;;;22.40;13.60;;;;;;;-10.72;100.00;101911.88;5052063;28;20040;-65
2023/12/11 00:57:04;;;;;;;25.10;14.10;;;;;;;-10.61;100.00;101915.31;5051881;28;20044;-66
2023/12/11 00:59:29;;;;;;;25.53;13.53;;;;;;;-10.60;100.00;101916.19;5051697;28;20440;-65
2023/12/11 01:01:55;;;;;;;28.97;16.07;;;;;;;-10.61;100.00;101905.03;5052539;28;20041;-66
2023/12/11 01:04:21;;;;;;;26.70;15.17;;;;;;;-10.58;100.00;101910.16;5052427;28;20135;-64
2023/12/11 01:06:47;;;;;;;24.83;17.13;;;;;;;-10.56;100.00;101911.03;5051965;28;20085;-65
2023/12/11 01:09:13;;;;;;;32.60;16.25;;;;;;;-10.57;100.00;101917.03;5051585;28;20053;-66
2023/12/11 01:11:39;;;;;;;21.43;13.10;;;;;;;-10.63;100.00;101893.88;5051554;28;20029;-66
2023/12/11 01:14:05;;;;;;;26.08;13.43;;;;;;;-10.44;100.00;101908.41;5051465;28;20447;-66
2023/12/11 01:16:30;;;;;;;26.43;13.20;;;;;;;-10.47;100.00;101898.13;5051606;28;20039;-67
2023/12/11 01:18:56;;;;;;;26.17;14.37;;;;;;;-10.52;100.00;101899.00;5051608;28;20033;-64
2023/12/11 01:21:21;;;;;;;24.03;14.40;;;;;;;-10.63;100.00;101889.56;5049928;28;20424;-64
2023/12/11 01:23:47;;;;;;;24.87;15.53;;;;;;;-10.53;100.00;101907.56;5051207;28;20063;-63
2023/12/11 01:26:12;;;;;;;22.43;13.40;;;;;;;-10.49;100.00;101910.16;5051453;28;20039;-64
2023/12/11 01:28:38;;;;;;;24.70;13.43;;;;;;;-10.55;100.00;101888.69;5049899;28;20064;-65
2023/12/11 01:31:04;;;;;;;23.57;13.23;;;;;;;-10.73;100.00;101848.38;5051429;28;20412;-67
2023/12/11 01:33:29;;;;;;;31.53;15.33;;;;;;;-10.69;100.00;101842.41;5051581;28;20060;-64
2023/12/11 01:35:55;;;;;;;20.40;13.03;;;;;;;-10.59;100.00;101861.25;5051674;28;20040;-64
2023/12/11 01:38:21;;;;;;;27.83;15.90;;;;;;;-10.49;100.00;101870.66;5051285;28;20119;-64
2023/12/11 01:40:46;;;;;;;26.07;14.47;;;;;;;-10.52;100.00;101871.53;5051252;28;20039;-64
2023/12/11 01:43:16;;;;;;;58.27;29.47;;;;;;;-10.72;100.00;101830.38;5049717;28;20047;-67
2023/12/11 01:45:42;;;;;;;31.88;15.77;;;;;;;-10.57;100.00;101854.38;5050985;28;20091;-66
2023/12/11 01:48:09;;;;;;;24.50;13.87;;;;;;;-10.55;100.00;101853.50;5051417;28;20041;-67
2023/12/11 01:50:36;;;;;;;25.55;14.57;;;;;;;-10.51;100.00;101867.25;5051099;28;20086;-65
2023/12/11 01:53:02;;;;;;;29.80;14.27;;;;;;;-10.56;100.00;101849.22;5051927;28;20055;-65
2023/12/11 01:55:31;;;;;;;26.00;15.15;;;;;;;-10.39;100.00;101870.66;5050958;28;20040;-64
2023/12/11 01:57:58;;;;;;;26.05;14.15;;;;;;;-10.49;100.00;101863.78;5051030;28;20029;-63
2023/12/11 02:00:24;;;;;;;23.70;14.25;;;;;;;-10.44;100.00;101863.78;5050015;28;20048;-68
2023/12/11 02:02:50;;;;;;;27.67;14.75;;;;;;;-10.50;100.00;101850.94;5051106;28;20032;-67
2023/12/11 02:05:17;;;;;;;22.98;14.43;;;;;;;-10.62;100.00;101823.50;5050864;28;20088;-64
2023/12/11 02:07:44;;;;;;;26.77;13.35;;;;;;;-10.60;100.00;101833.78;5051688;28;20415;-65
2023/12/11 02:10:10;;;;;;;23.08;14.68;;;;;;;-10.51;100.00;101847.50;5053162;28;20100;-64
2023/12/11 02:12:36;;;;;;;23.50;13.77;;;;;;;-10.61;100.00;101829.50;5052148;28;20437;-63
2023/12/11 02:15:01;;;;;;;21.03;13.90;;;;;;;-10.43;100.00;101843.19;5051099;28;20266;-65
2023/12/11 02:17:30;;;;;;;22.00;12.93;;;;;;;-10.35;100.00;101850.91;5051118;28;20151;-64
2023/12/11 02:19:56;;;;;;;23.93;12.43;;;;;;;-10.46;100.00;101830.31;5051246;28;20111;-68
2023/12/11 02:22:24;;;;;;;21.93;13.47;;;;;;;-10.47;100.00;101826.03;5051559;28;20503;-68
2023/12/11 02:24:53;;;;;;;25.27;12.57;;;;;;;-10.28;100.00;101839.72;5051382;28;20036;-63
2023/12/11 02:27:19;;;;;;;24.85;13.50;;;;;;;-10.28;100.00;101846.59;5051024;28;20133;-67
2023/12/11 02:29:45;;;;;;;24.90;13.57;;;;;;;-10.47;100.00;101810.56;5051096;28;20550;-68
2023/12/11 02:32:14;;;;;;;31.77;15.83;;;;;;;-10.22;100.00;101846.56;5051430;28;20033;-66
2023/12/11 02:34:40;;;;;;;24.08;15.15;;;;;;;-10.12;100.00;101835.31;5054412;28;20515;-66
2023/12/11 02:37:05;;;;;;;23.03;12.70;;;;;;;-10.17;100.00;101824.19;5055326;28;20040;-65
2023/12/11 02:39:31;;;;;;;24.93;13.50;;;;;;;-10.06;100.00;101843.03;5055266;28;20029;-67
2023/12/11 02:41:57;;;;;;;29.63;14.23;;;;;;;-10.12;100.00;101817.28;5055614;28;20399;-66
2023/12/11 02:44:22;;;;;;;25.47;15.07;;;;;;;-10.18;100.00;101814.75;5056143;28;20039;-67
2023/12/11 02:46:48;;;;;;;23.90;16.40;;;;;;;-10.07;100.00;101824.16;5056265;28;20481;-66
2023/12/11 02:49:14;;;;;;;23.30;14.17;;;;;;;-10.08;100.00;101819.00;5055573;28;20032;-65
2023/12/11 02:51:39;;;;;;;21.20;12.43;;;;;;;-9.91;100.00;101837.81;5054699;28;20481;-68
2023/12/11 02:54:05;;;;;;;31.90;15.87;;;;;;;-9.84;100.00;101849.78;5054793;28;20041;-66
2023/12/11 02:56:30;;;;;;;31.07;14.03;;;;;;;-9.94;100.00;101844.69;5055813;28;20033;-68
2023/12/11 02:58:56;;;;;;;25.40;15.20;;;;;;;-10.00;100.00;101832.72;5054261;28;20508;-66
2023/12/11 03:01:21;;;;;;;29.37;14.57;;;;;;;-9.94;100.00;101842.97;5053041;28;20466;-65
2023/12/11 03:03:47;;;;;;;26.90;17.07;;;;;;;-9.94;100.00;101837.81;5054491;28;20062;-65
2023/12/11 03:06:20;;;;;;;24.60;14.70;;;;;;;-10.09;100.00;101807.00;5054846;28;20377;-67
2023/12/11 03:08:47;;;;;;;27.73;17.80;;;;;;;-9.90;100.00;101818.91;5054885;28;20049;-67
2023/12/11 03:11:13;;;;;;;27.23;14.05;;;;;;;-9.91;100.00;101819.78;5054868;28;20152;-67
2023/12/11 03:13:39;;;;;;;24.45;15.18;;;;;;;-9.91;100.00;101822.34;5054250;28;20492;-66
2023/12/11 03:16:05;;;;;;;26.07;16.07;;;;;;;-10.02;100.00;101814.69;5053980;28;20090;-64
2023/12/11 03:18:30;;;;;;;23.93;15.60;;;;;;;-10.09;100.00;101796.69;5052594;28;20083;-68
2023/12/11 03:20:56;;;;;;;24.13;14.10;;;;;;;-9.83;100.00;101836.06;5053962;28;20041;-66
2023/12/11 03:23:21;;;;;;;24.57;14.63;;;;;;;-9.90;100.00;101823.19;5053377;28;20045;-68
2023/12/11 03:25:47;;;;;;;30.53;14.93;;;;;;;-10.04;100.00;101800.09;5054421;28;20417;-66
2023/12/11 03:28:13;;;;;;;28.17;15.70;;;;;;;-9.89;100.00;101819.75;5054637;28;20041;-67
2023/12/11 03:30:38;;;;;;;28.77;14.67;;;;;;;-10.01;100.00;101815.53;5053937;28;20110;-70
2023/12/11 03:33:04;;;;;;;27.63;16.17;;;;;;;-9.91;100.00;101819.78;5054841;28;20040;-69
2023/12/11 03:35:29;;;;;;;23.70;14.13;;;;;;;-9.90;100.00;101813.75;5053877;28;20037;-68
2023/12/11 03:37:55;;;;;;;24.57;14.00;;;;;;;-9.81;100.00;101824.03;5054093;28;20063;-64
2023/12/11 03:40:21;;;;;;;27.07;16.00;;;;;;;-9.81;100.00;101813.72;5055352;28;20039;-64
2023/12/11 03:42:46;;;;;;;28.97;14.37;;;;;;;-10.35;100.00;101712.69;5056071;28;20059;-63
2023/12/11 03:45:12;;;;;;;28.70;14.97;;;;;;;-9.87;100.00;101785.38;5056490;28;20037;-67
2023/12/11 03:47:37;;;;;;;24.47;14.43;;;;;;;-9.79;100.00;101796.53;5053499;28;20029;-67
2023/12/11 03:50:03;;;;;;;30.70;14.13;;;;;;;-9.78;100.00;101787.06;5054204;28;20035;-69
2023/12/11 03:52:30;;;;;;;26.15;13.85;;;;;;;-9.92;100.00;101758.78;5052233;28;20029;-67
2023/12/11 03:54:56;;;;;;;24.87;14.33;;;;;;;-9.80;100.00;101784.50;5053485;28;20040;-64
2023/12/11 03:57:21;;;;;;;29.10;15.30;;;;;;;-9.80;100.00;101783.66;5053370;28;20493;-66
2023/12/11 03:59:47;;;;;;;29.30;14.30;;;;;;;-9.83;100.00;101779.38;5053781;28;20493;-64
2023/12/11 04:02:13;;;;;;;30.20;14.97;;;;;;;-9.80;100.00;101771.63;5052001;28;20082;-64
2023/12/11 04:04:38;;;;;;;23.90;15.23;;;;;;;-9.71;100.00;101789.59;5053267;28;20032;-65
2023/12/11 04:07:04;;;;;;;25.53;14.70;;;;;;;-9.70;100.00;101791.31;5053510;28;20049;-64
2023/12/11 04:09:30;;;;;;;27.87;14.90;;;;;;;-9.77;100.00;101787.06;5054535;28;20469;-67
2023/12/11 04:11:55;;;;;;;26.50;16.10;;;;;;;-9.68;100.00;101789.56;5053105;28;20037;-66
2023/12/11 04:14:21;;;;;;;28.47;15.83;;;;;;;-9.68;100.00;101796.44;5053533;28;20095;-63
2023/12/11 04:16:46;;;;;;;24.17;13.33;;;;;;;-9.66;100.00;101778.38;5052749;28;20037;-65
2023/12/11 04:19:12;;;;;;;30.40;15.53;;;;;;;-9.65;100.00;101788.69;5052535;28;20041;-62
2023/12/11 04:21:38;;;;;;;25.77;14.77;;;;;;;-9.77;100.00;101760.44;5052325;28;20025;-64
2023/12/11 04:24:04;;;;;;;25.87;14.57;;;;;;;-9.64;100.00;101785.25;5052504;28;20041;-66
2023/12/11 04:26:30;;;;;;;27.77;15.10;;;;;;;-9.74;100.00;101763.84;5052282;28;20369;-66
2023/12/11 04:28:55;;;;;;;27.17;16.80;;;;;;;-9.65;100.00;101759.47;5052217;28;20033;-68
2023/12/11 04:31:23;;;;;;;24.13;13.77;;;;;;;-9.87;100.00;101714.94;5053209;28;20107;-68
2023/12/11 04:33:51;;;;;;;25.33;14.68;;;;;;;-9.55;100.00;101764.53;5053139;28;20028;-69
2023/12/11 04:36:17;;;;;;;26.10;15.23;;;;;;;-9.83;100.00;101706.31;5052808;28;20046;-68
2023/12/11 04:38:42;;;;;;;28.87;15.67;;;;;;;-9.51;100.00;101760.25;5052646;28;20408;-70
2023/12/11 04:41:08;;;;;;;27.73;14.10;;;;;;;-9.63;100.00;101737.13;5052129;28;20029;-64
2023/12/11 04:43:34;;;;;;;25.43;13.93;;;;;;;-9.49;100.00;101759.38;5052590;28;20432;-68
2023/12/11 04:46:00;;;;;;;27.02;13.80;;;;;;;-9.53;100.00;101746.50;5052318;28;20037;-70
2023/12/11 04:48:26;;;;;;;28.47;15.20;;;;;;;-9.65;100.00;101710.50;5017909;28;20044;-66
2023/12/11 04:50:51;;;;;;;24.83;15.07;;;;;;;-9.34;100.00;101757.53;5052401;28;20041;-66
2023/12/11 04:53:17;;;;;;;24.60;13.50;;;;;;;-9.48;100.00;101743.03;5053485;28;20036;-66
2023/12/11 04:55:42;;;;;;;28.87;14.70;;;;;;;-9.39;100.00;101747.25;5053082;28;20037;-66
2023/12/11 04:58:08;;;;;;;28.00;15.10;;;;;;;-9.40;100.00;101748.13;5052472;28;20040;-67
2023/12/11 05:00:34;;;;;;;24.17;14.17;;;;;;;-9.89;100.00;101670.28;5052129;28;20075;-66
2023/12/11 05:02:59;;;;;;;22.23;13.80;;;;;;;-9.68;100.00;101701.91;5049883;28;20047;-65
2023/12/11 05:05:25;;;;;;;24.43;13.93;;;;;;;-9.49;100.00;101737.88;5052247;28;20057;-68
2023/12/11 05:07:51;;;;;;;25.90;16.47;;;;;;;-9.39;100.00;101742.94;5052678;28;20041;-67
2023/12/11 05:10:16;;;;;;;28.80;15.77;;;;;;;-9.48;100.00;101724.97;5049360;28;20041;-66
2023/12/11 05:12:42;;;;;;;23.97;14.60;;;;;;;-9.39;100.00;101739.50;5036985;28;20545;-66
2023/12/11 05:15:08;;;;;;;29.80;16.27;;;;;;;-9.38;100.00;101724.00;5031189;28;20036;-66
2023/12/11 05:17:34;;;;;;;29.97;14.47;;;;;;;-9.31;100.00;101713.63;5030661;28;20044;-65
2023/12/11 05:20:02;;;;;;;28.53;14.27;;;;;;;-9.25;100.00;101722.19;5043235;28;20275;-70
2023/12/11 05:22:31;;;;;;;26.45;15.25;;;;;;;-9.27;100.00;101720.47;5045930;28;20659;-65
2023/12/11 05:24:56;;;;;;;30.03;16.47;;;;;;;-9.37;100.00;101717.97;5052873;28;20092;-65
2023/12/11 05:27:22;;;;;;;26.67;14.70;;;;;;;-9.39;100.00;101731.78;5052910;28;20511;-66
2023/12/11 05:29:48;;;;;;;31.47;17.03;;;;;;;-9.40;100.00;101740.38;5052497;28;20086;-68
2023/12/11 05:32:14;;;;;;;31.13;16.20;;;;;;;-9.46;100.00;101732.69;5051306;28;20116;-66
2023/12/11 05:34:40;;;;;;;42.67;29.20;;;;;;;-9.40;100.00;101730.06;5052153;28;20040;-63
2023/12/11 05:37:06;;;;;;;28.80;16.93;;;;;;;-9.65;100.00;101692.44;5050728;28;20036;-66
2023/12/11 05:39:31;;;;;;;34.03;18.43;;;;;;;-9.32;100.00;101748.03;5050466;28;20508;-66
2023/12/11 05:41:57;;;;;;;36.43;23.13;;;;;;;-9.47;100.00;101721.53;5050170;28;20171;-66
2023/12/11 05:44:22;;;;;;;31.07;17.20;;;;;;;-9.40;100.00;101727.47;5050224;28;20052;-65
2023/12/11 05:46:48;;;;;;;40.00;22.27;;;;;;;-9.33;100.00;101734.28;5048803;28;20514;-67
2023/12/11 05:49:14;;;;;;;24.20;14.67;;;;;;;-9.47;100.00;101708.63;5051410;28;20033;-73
2023/12/11 05:51:39;;;;;;;26.40;16.57;;;;;;;-9.68;100.00;101686.44;5053974;28;20037;-70
2023/12/11 05:54:05;;;;;;;26.03;14.47;;;;;;;-9.38;100.00;101730.91;5050852;28;20072;-68
2023/12/11 05:56:30;;;;;;;29.07;16.50;;;;;;;-9.40;100.00;101719.75;5051523;28;20044;-66
2023/12/11 05:58:56;;;;;;;20.73;15.03;;;;;;;-9.45;100.00;101717.22;5050628;28;20041;-65
2023/12/11 06:01:22;;;;;;;31.73;15.03;;;;;;;-9.61;100.00;101686.38;5050503;28;20040;-68
2023/12/11 06:03:47;;;;;;;26.47;15.03;;;;;;;-9.52;100.00;101706.97;5049740;28;20488;-67
2023/12/11 06:06:15;;;;;;;27.77;14.60;;;;;;;-9.47;100.00;101705.19;5051908;28;20061;-70
2023/12/11 06:08:42;;;;;;;32.15;14.80;;;;;;;-9.46;100.00;101686.28;5052346;28;20136;-68
2023/12/11 06:11:07;;;;;;;24.27;14.18;;;;;;;-9.38;100.00;101712.84;5055092;28;20041;-68
2023/12/11 06:13:33;;;;;;;26.27;13.27;;;;;;;-9.26;100.00;101710.13;5054832;28;20039;-69
2023/12/11 06:15:59;;;;;;;24.73;13.93;;;;;;;-9.52;100.00;101661.41;5055325;28;20480;-67
2023/12/11 06:18:25;;;;;;;25.27;15.13;;;;;;;-9.22;100.00;101711.84;5053666;28;20029;-67
2023/12/11 06:20:50;;;;;;;21.27;14.02;;;;;;;-9.41;100.00;101685.34;5054544;28;20480;-66
2023/12/11 06:23:16;;;;;;;26.03;15.80;;;;;;;-9.33;100.00;101687.00;5054910;28;20039;-65
2023/12/11 06:25:42;;;;;;;23.33;13.20;;;;;;;-9.51;100.00;101657.09;5054437;28;20033;-66
2023/12/11 06:28:08;;;;;;;26.73;15.70;;;;;;;-9.35;100.00;101707.66;5053201;28;20048;-66
2023/12/11 06:30:34;;;;;;;29.15;16.08;;;;;;;-9.33;100.00;101712.78;5054298;28;20125;-63
2023/12/11 06:33:00;;;;;;;25.52;14.57;;;;;;;-9.44;100.00;101695.69;5054105;28;20025;-65
2023/12/11 06:35:26;;;;;;;23.00;12.60;;;;;;;-9.26;100.00;101704.97;5054102;28;20082;-65
2023/12/11 06:37:51;;;;;;;24.67;12.97;;;;;;;-9.29;100.00;101693.84;5054240;28;20033;-67
2023/12/11 06:40:17;;;;;;;27.53;14.90;;;;;;;-9.42;100.00;101683.66;5053907;28;20029;-66
2023/12/11 06:42:43;;;;;;;25.95;13.75;;;;;;;-9.40;100.00;101704.25;5051185;28;20036;-64
2023/12/11 06:45:10;;;;;;;27.50;16.57;;;;;;;-9.38;100.00;101720.59;5053671;28;20059;-66
2023/12/11 06:47:36;;;;;;;29.45;15.70;;;;;;;-9.48;100.00;101698.31;5053419;28;20041;-65
2023/12/11 06:50:03;;;;;;;34.30;16.55;;;;;;;-9.29;100.00;101710.16;5052696;28;20514;-67
2023/12/11 06:52:31;;;;;;;26.77;14.90;;;;;;;-9.44;100.00;101669.91;5053708;28;20492;-65
2023/12/11 06:54:57;;;;;;;30.67;16.93;;;;;;;-9.33;100.00;101687.00;5052715;28;20040;-65
2023/12/11 06:57:22;;;;;;;23.73;16.77;;;;;;;-9.35;100.00;101699.91;5053774;28;20840;-64
2023/12/11 06:59:48;;;;;;;30.83;15.77;;;;;;;-9.36;100.00;101713.69;5035856;28;20029;-65
2023/12/11 07:02:14;;;;;;;25.53;15.37;;;;;;;-9.33;100.00;101726.53;5052471;28;20485;-64
2023/12/11 07:04:42;;;;;;;28.50;17.13;;;;;;;-9.38;100.00;101723.16;5053969;28;20037;-67
2023/12/11 07:07:10;;;;;;;30.48;16.30;;;;;;;-9.57;100.00;101706.97;5053668;28;20071;-64
2023/12/11 07:09:35;;;;;;;23.77;15.55;;;;;;;-9.61;100.00;101686.38;5053782;28;20052;-65
2023/12/11 07:12:01;;;;;;;28.60;15.83;;;;;;;-9.47;100.00;101707.78;5053516;28;20037;-65
2023/12/11 07:14:27;;;;;;;27.80;15.35;;;;;;;-9.39;100.00;101711.13;5054249;28;20318;-65
2023/12/11 07:16:53;;;;;;;29.80;15.73;;;;;;;-9.39;100.00;101696.50;5053489;28;20401;-64
2023/12/11 07:19:21;;;;;;;27.23;15.30;;;;;;;-9.29;100.00;101701.56;5051494;28;20086;-67
2023/12/11 07:21:47;;;;;;;27.95;15.65;;;;;;;-9.30;100.00;101698.16;5053969;28;20037;-66
2023/12/11 07:24:13;;;;;;;26.63;14.07;;;;;;;-9.38;100.00;101674.16;5053530;28;20041;-65
2023/12/11 07:26:38;;;;;;;25.27;14.87;;;;;;;-9.39;100.00;101659.56;5053445;28;20435;-65
2023/12/11 07:29:04;;;;;;;27.43;16.07;;;;;;;-9.47;100.00;101653.63;5053264;28;20040;-65
2023/12/11 07:31:30;;;;;;;28.90;15.07;;;;;;;-9.31;100.00;101680.09;5053631;28;20032;-67
2023/12/11 07:33:56;;;;;;;26.20;16.90;;;;;;;-9.21;100.00;101699.81;5053564;28;20142;-65
2023/12/11 07:36:22;;;;;;;27.97;15.43;;;;;;;-9.28;100.00;101701.56;5053918;28;20216;-66
2023/12/11 07:38:49;;;;;;;28.38;15.75;;;;;;;-10.37;100.00;101518.72;5052030;28;20075;-66
2023/12/11 07:41:23;;;;;;;23.38;15.18;;;;;;;-9.34;100.00;101680.13;5053875;28;20068;-65
2023/12/11 07:43:49;;;;;;;28.65;16.98;;;;;;;-9.62;100.00;101627.97;5053512;28;20033;-68
2023/12/11 07:46:20;;;;;;;24.67;15.30;;;;;;;-9.35;100.00;101674.13;5053257;28;20044;-66
2023/12/11 07:48:46;;;;;;;27.23;17.27;;;;;;;-9.29;100.00;101679.22;5052863;28;20476;-66
2023/12/11 07:51:23;;;;;;;26.20;14.60;;;;;;;-9.12;100.00;101703.13;5053370;28;20033;-65
2023/12/11 07:53:49;;;;;;;27.50;15.98;;;;;;;-9.07;100.00;101693.63;5053566;28;20037;-66
2023/12/11 07:56:21;;;;;;;24.07;13.07;;;;;;;-9.09;100.00;101697.09;5053405;28;20504;-65
2023/12/11 07:58:47;;;;;;;24.58;15.90;;;;;;;-9.13;100.00;101706.59;5053923;28;20041;-65
2023/12/11 08:01:13;;;;;;;27.30;15.93;;;;;;;-9.17;100.00;101694.59;5054697;28;20132;-66
2023/12/11 08:03:39;;;;;;;25.58;14.77;;;;;;;-9.29;100.00;101671.47;5054103;28;20282;-66
2023/12/11 08:06:05;;;;;;;31.27;16.10;;;;;;;-9.32;100.00;101676.66;5055034;28;20061;-64
2023/12/11 08:08:31;;;;;;;26.50;15.40;;;;;;;-9.28;100.00;101673.19;5054335;28;20097;-65
2023/12/11 08:10:56;;;;;;;29.83;18.07;;;;;;;-9.32;100.00;101657.75;5055536;28;20533;-64
2023/12/11 08:13:22;;;;;;;24.60;14.87;;;;;;;-9.40;100.00;101645.78;5054932;28;20041;-64
2023/12/11 08:15:48;;;;;;;24.57;13.97;;;;;;;-9.11;100.00;101693.66;5054784;28;20126;-67
2023/12/11 08:18:14;;;;;;;27.97;14.87;;;;;;;-9.29;100.00;101650.84;5054427;28;20029;-64
2023/12/11 08:20:39;;;;;;;25.83;15.05;;;;;;;-9.29;100.00;101648.25;5054596;28;20040;-62
2023/12/11 08:23:05;;;;;;;24.40;15.70;;;;;;;-9.24;100.00;101661.13;5055664;28;20045;-64
2023/12/11 08:25:30;;;;;;;30.63;16.53;;;;;;;-9.20;100.00;101661.09;5055871;28;20126;-66
2023/12/11 08:27:56;;;;;;;29.23;14.93;;;;;;;-9.17;100.00;101650.72;5053772;28;20488;-65
2023/12/11 08:30:22;;;;;;;25.97;14.93;;;;;;;-9.12;100.00;101645.50;5053716;28;20037;-67
2023/12/11 08:32:47;;;;;;;28.07;14.23;;;;;;;-8.97;100.00;101662.53;5052624;28;20040;-64
2023/12/11 08:35:13;;;;;;;28.60;17.53;;;;;;;-9.09;100.00;101636.00;5052741;28;20443;-65
2023/12/11 08:37:38;;;;;;;26.33;14.80;;;;;;;-9.11;100.00;101627.44;5052272;28;20037;-65
2023/12/11 08:40:05;;;;;;;28.03;15.07;;;;;;;-9.12;100.00;101627.44;5034843;28;20496;-68
2023/12/11 08:42:32;;;;;;;34.00;18.05;;;;;;;-9.02;100.00;101654.00;5051352;28;20037;-65
2023/12/11 08:44:58;;;;;;;29.73;15.35;;;;;;;-9.06;100.00;101654.03;5050984;28;20039;-67
2023/12/11 08:47:24;;;;;;;28.37;16.67;;;;;;;-8.91;100.00;101652.16;5052004;28;20033;-67
2023/12/11 08:49:50;;;;;;;31.30;16.17;;;;;;;-9.40;100.00;101573.59;5051874;28;20040;-67
2023/12/11 08:52:15;;;;;;;30.40;18.50;;;;;;;-9.14;100.00;101635.22;5052331;28;20090;-66
2023/12/11 08:54:41;;;;;;;30.90;17.33;;;;;;;-9.16;100.00;101621.47;5051754;28;20381;-66
2023/12/11 08:57:07;;;;;;;33.67;18.77;;;;;;;-8.98;100.00;101642.75;5052011;28;20029;-66
2023/12/11 08:59:33;;;;;;;30.57;18.03;;;;;;;-9.13;100.00;101607.69;5051959;28;20045;-64
2023/12/11 09:01:58;;;;;;;31.80;16.73;;;;;;;-8.88;100.00;101624.59;5051981;28;20037;-67
2023/12/11 09:04:25;;;;;;;33.37;17.13;;;;;;;-8.78;100.00;101620.16;5051023;28;20041;-66
2023/12/11 09:07:16;;;;;;;30.08;18.42;;;;;;;-8.63;100.00;101624.28;5028874;28;20053;-68
2023/12/11 09:09:44;;;;;;;36.25;17.60;;;;;;;-8.69;100.00;101606.25;5051921;28;20052;-67
2023/12/11 09:12:56;;;;;;;27.87;16.27;;;;;;;-8.56;100.00;101619.00;5052329;28;20051;-67
2023/12/11 09:15:22;;;;;;;32.33;17.33;;;;;;;-8.63;100.00;101590.72;5050969;28;20096;-68
2023/12/11 09:17:48;;;;;;;33.90;18.43;;;;;;;-8.51;100.00;101595.69;5054163;28;20090;-68
2023/12/11 09:20:17;;;;;;;28.13;18.17;;;;;;;-8.60;100.00;101582.91;5051186;28;20029;-67
2023/12/11 09:23:36;;;;;;;28.17;16.60;;;;;;;-8.51;100.00;101600.84;5050890;28;20033;-67
2023/12/11 09:29:42;;;;;;;30.85;20.10;;;;;;;-8.44;100.00;101562.00;5051568;28;20416;-69
2023/12/11 09:32:07;;;;;;;29.40;17.37;;;;;;;-8.30;100.00;101592.75;5052402;28;20037;-71
2023/12/11 09:34:33;;;;;;;36.37;17.10;;;;;;;-8.43;100.00;101568.84;5052844;28;20037;-69
2023/12/11 09:36:59;;;;;;;28.40;15.97;;;;;;;-8.33;100.00;101584.25;5053064;28;20044;-68
2023/12/11 09:39:27;;;;;;;29.30;18.07;;;;;;;-8.37;100.00;101574.84;5052854;28;20040;-69
2023/12/11 09:41:54;;;;;;;34.00;16.50;;;;;;;-8.37;100.00;101569.66;5053799;28;20033;-69
2023/12/11 09:44:21;;;;;;;33.88;16.52;;;;;;;-8.33;100.00;101571.31;5050223;28;20408;-68
2023/12/11 09:46:51;;;;;;;31.30;17.02;;;;;;;-8.56;100.00;101544.09;5052247;28;20039;-68
2023/12/11 09:49:18;;;;;;;26.50;16.05;;;;;;;-8.44;100.00;101549.06;5051803;28;20178;-66
2023/12/11 09:51:43;;;;;;;31.38;18.10;;;;;;;-8.22;100.00;101570.25;5051424;28;20043;-69
2023/12/11 09:54:09;;;;;;;29.27;14.80;;;;;;;-8.27;100.00;101535.88;5051186;28;20121;-67
2023/12/11 09:56:36;;;;;;;26.97;16.10;;;;;;;-8.22;100.00;101526.31;5051133;28;20573;-68
2023/12/11 09:59:02;;;;;;;32.70;18.65;;;;;;;-8.06;100.00;101547.59;5083153;28;20120;-67
2023/12/11 10:01:29;;;;;;;28.52;17.08;;;;;;;-8.19;100.00;101525.41;5049892;28;20091;-69
2023/12/11 10:03:55;;;;;;;29.02;15.95;;;;;;;-8.15;100.00;101538.25;5049813;28;20094;-69
2023/12/11 10:06:23;;;;;;;18.17;13.17;;;;;;;-8.13;100.00;101538.22;5049821;28;20497;-67
2023/12/11 10:08:53;;;;;;;28.92;15.27;;;;;;;-8.50;100.00;101474.28;5048846;28;20061;-68
2023/12/11 10:11:22;;;;;;;28.73;16.35;;;;;;;-8.34;100.00;101507.63;5050488;28;20055;-67
2023/12/11 10:13:49;;;;;;;26.83;16.13;;;;;;;-8.16;100.00;101527.94;5050650;28;20033;-67
2023/12/11 10:16:33;;;;;;;28.00;16.88;;;;;;;-8.05;100.00;101520.88;5049230;28;20037;-68
2023/12/11 10:19:02;;;;;;;27.60;14.80;;;;;;;-7.91;100.00;101539.56;5050731;28;20055;-66
2023/12/11 10:21:39;;;;;;;24.60;14.80;;;;;;;-7.93;100.00;101536.16;5050653;28;20048;-69
2023/12/11 10:24:16;;;;;;;21.88;15.13;;;;;;;-8.02;100.00;101525.13;5049245;28;20044;-67
2023/12/11 10:26:46;;;;;;;25.75;15.27;;;;;;;-8.06;100.00;101519.16;5049664;28;20043;-67
2023/12/11 10:29:19;;;;;;;26.65;15.45;;;;;;;-8.08;100.00;101531.25;5049365;28;20136;-66
2023/12/11 10:31:45;;;;;;;25.52;14.35;;;;;;;-8.28;100.00;101502.31;5049553;28;20037;-67
2023/12/11 10:34:11;;;;;;;28.80;15.03;;;;;;;-8.15;100.00;101514.13;5051011;28;20043;-69
2023/12/11 10:36:50;;;;;;;25.63;15.15;;;;;;;-8.24;100.00;101489.31;5050457;28;20056;-67
2023/12/11 10:39:16;;;;;;;24.88;13.85;;;;;;;-8.17;100.00;101495.22;5050840;28;20048;-66
2023/12/11 10:41:45;;;;;;;26.92;16.20;;;;;;;-8.12;100.00;101508.91;5049356;28;20080;-66
2023/12/11 10:44:25;;;;;;;28.90;17.45;;;;;;;-8.16;100.00;101518.44;5050673;28;20047;-66
2023/12/11 10:46:53;;;;;;;24.00;15.07;;;;;;;-8.20;100.00;101506.47;5050613;28;20145;-68
2023/12/11 10:49:19;;;;;;;28.70;15.75;;;;;;;-8.08;100.00;101509.72;5050280;28;20060;-66
2023/12/11 10:51:47;;;;;;;28.48;14.23;;;;;;;-8.09;100.00;101503.72;5050483;28;20434;-68
2023/12/11 10:54:12;;;;;;;22.10;14.57;;;;;;;-8.04;100.00;101501.91;5050934;28;20558;-69
2023/12/11 10:56:42;;;;;;;31.47;18.30;;;;;;;-8.01;100.00;101506.16;5053482;28;20064;-66
2023/12/11 10:59:08;;;;;;;28.23;16.10;;;;;;;-8.03;100.00;101506.19;5052244;28;20037;-67
2023/12/11 11:01:34;;;;;;;25.27;13.53;;;;;;;-8.01;100.00;101500.97;5053567;28;20037;-68